Terminal Aerodrome Forecast
Issued by NWS Blacksburg, VA

Current Version | Previous Version | Graphics & Text | Print | Product List | Glossary On
Versions: 1 2 3 4 5 6 7 8 9 10 11 12 13 14 15 16 17 18
000
FTUS41 KRNK 072320
TAFBLF
TAF
KBLF 072320Z 0800/0824 26004KT P6SM BKN250
     FM080400 00000KT P6SM BKN060
     FM081100 29005KT P6SM BKN090
     FM081500 29009KT P6SM BKN200
     FM081800 29012G25KT P6SM SCT060
     FM081900 29013G26KT P6SM SCT250=

USA.gov is the U.S. government's official web portal to all federal, state and local government web resources and services.